createdAt,value
2023-02-18T00:01:25.455Z,24.00
2023-02-18T00:03:29.507Z,30.87
2023-02-18T00:05:31.768Z,41.87
2023-02-18T00:07:35.716Z,34.50
2023-02-18T00:09:39.212Z,31.53
2023-02-18T00:11:41.462Z,31.53
2023-02-18T00:13:44.017Z,26.10
2023-02-18T00:15:46.143Z,44.47
2023-02-18T00:17:48.265Z,46.20
2023-02-18T00:19:50.466Z,54.83
2023-02-18T00:21:52.508Z,50.33
2023-02-18T00:23:55.271Z,34.50
2023-02-18T00:26:17.457Z,32.13
2023-02-18T00:28:19.797Z,30.87
2023-02-18T00:30:21.897Z,32.97
2023-02-18T00:32:24.004Z,32.70
2023-02-18T00:34:26.170Z,30.07
2023-02-18T00:36:29.700Z,25.90
2023-02-18T00:38:32.036Z,29.57
2023-02-18T00:40:38.101Z,27.20
2023-02-18T00:42:40.101Z,25.57
2023-02-18T00:44:43.951Z,25.67
2023-02-18T00:46:48.419Z,25.93
2023-02-18T00:48:50.490Z,33.70
2023-02-18T00:50:52.638Z,32.07
2023-02-18T00:52:56.868Z,24.97
2023-02-18T00:54:59.625Z,36.90
2023-02-18T00:57:01.689Z,41.13
2023-02-18T00:59:04.058Z,28.67
2023-02-18T01:01:07.895Z,28.47
2023-02-18T01:03:10.419Z,25.50
2023-02-18T01:05:12.881Z,25.57
2023-02-18T01:07:15.585Z,23.80
2023-02-18T01:09:17.835Z,19.73
2023-02-18T01:11:20.155Z,24.80
2023-02-18T01:13:25.054Z,34.33
2023-02-18T01:15:27.626Z,43.97
2023-02-18T01:17:29.982Z,42.30
2023-02-18T01:19:32.121Z,31.53
2023-02-18T01:21:35.445Z,29.90
2023-02-18T01:23:42.993Z,23.30
2023-02-18T01:25:45.975Z,22.50
2023-02-18T01:27:48.176Z,22.27
2023-02-18T01:29:50.223Z,21.27
2023-02-18T01:31:52.401Z,21.30
2023-02-18T01:33:55.517Z,20.23
2023-02-18T01:35:57.609Z,19.10
2023-02-18T01:37:59.918Z,19.27
2023-02-18T01:40:02.134Z,19.77
2023-02-18T01:42:04.677Z,20.33
2023-02-18T01:44:28.500Z,19.97
2023-02-18T01:46:32.140Z,23.33
2023-02-18T01:48:45.003Z,23.23
2023-02-18T01:50:53.188Z,29.73
2023-02-18T01:52:55.654Z,25.97
2023-02-18T01:54:58.217Z,23.93
2023-02-18T01:57:10.996Z,22.40
2023-02-18T01:59:25.674Z,23.57
2023-02-18T02:01:28.224Z,22.53
2023-02-18T02:03:32.889Z,23.90
2023-02-18T02:05:35.897Z,21.57
2023-02-18T02:07:38.309Z,20.38
2023-02-18T02:09:42.287Z,20.87
2023-02-18T02:12:18.473Z,21.13
2023-02-18T02:14:45.552Z,19.93
2023-02-18T02:16:56.640Z,19.23
2023-02-18T02:19:06.114Z,21.63
2023-02-18T02:21:26.741Z,22.67
2023-02-18T02:23:35.644Z,22.70
2023-02-18T02:26:00.030Z,21.70
2023-02-18T02:28:27.222Z,19.77
2023-02-18T02:31:15.934Z,20.30
2023-02-18T02:33:59.764Z,20.80
2023-02-18T02:36:16.537Z,21.03
2023-02-18T02:38:30.352Z,19.93
2023-02-18T02:40:43.688Z,20.27
2023-02-18T02:43:03.994Z,21.07
2023-02-18T02:45:18.266Z,20.47
2023-02-18T02:47:38.219Z,23.13
2023-02-18T02:50:02.442Z,21.77
2023-02-18T02:52:26.956Z,21.37
2023-02-18T02:54:31.641Z,20.57
2023-02-18T02:56:35.642Z,19.67
2023-02-18T02:58:38.297Z,20.00
2023-02-18T03:00:43.358Z,20.03
2023-02-18T03:02:58.791Z,17.97
2023-02-18T03:05:26.776Z,19.63
2023-02-18T03:07:55.811Z,19.83
2023-02-18T03:10:03.887Z,20.20
2023-02-18T03:12:39.617Z,28.23
2023-02-18T03:14:57.370Z,49.67
2023-02-18T03:17:16.103Z,42.60
2023-02-18T03:19:35.979Z,31.97
2023-02-18T03:21:37.982Z,32.23
2023-02-18T03:23:54.266Z,33.80
2023-02-18T03:25:57.772Z,34.70
2023-02-18T03:28:09.620Z,31.70
2023-02-18T03:30:16.060Z,34.57
2023-02-18T03:32:22.202Z,42.67
2023-02-18T03:34:29.739Z,36.87
2023-02-18T03:36:38.249Z,41.37
2023-02-18T03:39:01.701Z,39.37
2023-02-18T03:41:06.017Z,42.73
2023-02-18T03:43:08.702Z,44.60
2023-02-18T03:45:11.085Z,45.50
2023-02-18T03:47:13.446Z,37.57
2023-02-18T03:49:16.404Z,31.60
2023-02-18T03:51:19.481Z,38.77
2023-02-18T03:53:21.513Z,32.80
2023-02-18T03:55:23.418Z,42.90
2023-02-18T03:57:25.737Z,46.13
2023-02-18T03:59:27.804Z,32.67
2023-02-18T04:01:30.009Z,28.60
2023-02-18T04:03:32.119Z,34.97
2023-02-18T04:05:34.122Z,37.33
2023-02-18T04:07:37.072Z,43.63
2023-02-18T04:09:39.229Z,35.43
2023-02-18T04:11:42.064Z,35.33
2023-02-18T04:13:44.302Z,31.07
2023-02-18T04:15:46.792Z,30.77
2023-02-18T04:17:51.964Z,29.63
2023-02-18T04:19:53.864Z,31.43
2023-02-18T04:21:56.583Z,31.37
2023-02-18T04:23:58.668Z,29.90
2023-02-18T04:26:00.778Z,29.10
2023-02-18T04:28:02.963Z,28.83
2023-02-18T04:30:06.803Z,35.10
2023-02-18T04:32:09.232Z,29.83
2023-02-18T04:34:12.625Z,29.63
2023-02-18T04:36:14.570Z,28.70
2023-02-18T04:38:16.980Z,24.83
2023-02-18T04:40:19.225Z,22.37
2023-02-18T04:42:21.574Z,20.57
2023-02-18T04:44:23.633Z,19.33
2023-02-18T04:46:26.222Z,20.40
2023-02-18T04:48:28.184Z,23.60
2023-02-18T04:50:30.134Z,25.50
2023-02-18T04:52:32.365Z,24.07
2023-02-18T04:54:34.578Z,23.87
2023-02-18T04:56:37.294Z,24.53
2023-02-18T04:58:42.780Z,21.93
2023-02-18T05:00:44.983Z,24.87
2023-02-18T05:02:47.815Z,23.43
2023-02-18T05:04:52.882Z,24.93
2023-02-18T05:06:55.577Z,22.23
2023-02-18T05:08:57.628Z,27.40
2023-02-18T05:10:59.877Z,31.10
2023-02-18T05:13:02.087Z,35.03
2023-02-18T05:15:04.428Z,35.03
2023-02-18T05:17:07.077Z,31.97
2023-02-18T05:19:10.922Z,28.40
2023-02-18T05:21:13.222Z,26.00
2023-02-18T05:23:15.220Z,22.87
2023-02-18T05:25:17.856Z,20.97
2023-02-18T05:27:19.871Z,19.77
2023-02-18T05:29:22.079Z,20.70
2023-02-18T05:31:24.371Z,19.90
2023-02-18T05:33:27.174Z,18.33
2023-02-18T05:35:29.343Z,17.37
2023-02-18T05:37:31.479Z,16.83
2023-02-18T05:39:36.725Z,18.47
2023-02-18T05:41:38.690Z,18.53
2023-02-18T05:43:59.018Z,20.60
2023-02-18T05:46:01.084Z,18.70
2023-02-18T05:48:05.761Z,19.30
2023-02-18T05:50:08.736Z,20.73
2023-02-18T05:52:11.639Z,18.93
2023-02-18T05:54:13.855Z,20.33
2023-02-18T05:56:16.064Z,21.70
2023-02-18T05:58:20.391Z,21.20
2023-02-18T06:00:22.701Z,21.03
2023-02-18T06:02:24.986Z,19.30
2023-02-18T06:04:27.919Z,19.90
2023-02-18T06:06:30.126Z,21.30
2023-02-18T06:08:32.278Z,21.43
2023-02-18T06:10:34.393Z,21.90
2023-02-18T06:12:37.012Z,19.05
2023-02-18T06:14:42.382Z,22.23
2023-02-18T06:16:44.584Z,22.43
2023-02-18T06:18:49.359Z,22.90
2023-02-18T06:20:51.610Z,32.33
2023-02-18T06:22:53.820Z,39.07
2023-02-18T06:24:56.031Z,38.23
2023-02-18T06:26:58.203Z,36.47
2023-02-18T06:29:00.697Z,43.47
2023-02-18T06:31:03.101Z,38.70
2023-02-18T06:33:05.455Z,32.45
2023-02-18T06:35:08.033Z,31.63
2023-02-18T06:37:10.345Z,28.77
2023-02-18T06:39:13.142Z,23.10
2023-02-18T06:41:15.655Z,24.27
2023-02-18T06:43:18.450Z,24.77
2023-02-18T06:45:20.477Z,22.67
2023-02-18T06:47:22.439Z,27.07
2023-02-18T06:49:24.623Z,28.30
2023-02-18T06:51:26.883Z,31.83
2023-02-18T06:53:28.856Z,34.50
2023-02-18T06:55:31.004Z,35.77
2023-02-18T06:57:33.287Z,42.87
2023-02-18T06:59:35.357Z,56.10
2023-02-18T07:01:37.774Z,53.30
2023-02-18T07:03:39.814Z,55.63
2023-02-18T07:05:42.531Z,49.15
2023-02-18T07:07:47.867Z,44.40
2023-02-18T07:09:50.132Z,42.38
2023-02-18T07:11:52.207Z,45.60
2023-02-18T07:13:54.349Z,55.80
2023-02-18T07:15:56.557Z,48.00
2023-02-18T07:17:58.830Z,33.83
2023-02-18T07:20:01.250Z,31.43
2023-02-18T07:22:03.340Z,24.70
2023-02-18T07:24:05.987Z,26.03
2023-02-18T07:26:11.314Z,23.97
2023-02-18T07:28:13.623Z,24.83
2023-02-18T07:30:16.094Z,24.87
2023-02-18T07:32:19.513Z,25.53
2023-02-18T07:34:21.592Z,25.13
2023-02-18T07:36:23.644Z,25.02
2023-02-18T07:38:26.903Z,23.60
2023-02-18T07:40:28.749Z,22.43
2023-02-18T07:42:30.849Z,19.90
2023-02-18T07:44:32.997Z,19.40
2023-02-18T07:46:43.356Z,21.10
2023-02-18T07:48:45.595Z,20.17
2023-02-18T07:50:48.148Z,20.98
2023-02-18T07:52:50.146Z,21.27
2023-02-18T07:54:52.232Z,19.83
2023-02-18T07:56:55.064Z,20.17
2023-02-18T07:58:57.504Z,20.60
2023-02-18T08:00:59.946Z,19.10
2023-02-18T08:03:02.031Z,19.45
2023-02-18T08:05:03.906Z,21.03
2023-02-18T08:07:06.518Z,19.33
2023-02-18T08:09:08.867Z,18.90
2023-02-18T08:11:19.481Z,18.50
2023-02-18T08:13:21.888Z,19.73
2023-02-18T08:15:23.919Z,19.47
2023-02-18T08:17:28.790Z,19.60
2023-02-18T08:19:31.133Z,18.63
2023-02-18T08:21:33.597Z,19.60
2023-02-18T08:23:35.778Z,18.90
2023-02-18T08:25:38.196Z,19.17
2023-02-18T08:27:40.448Z,19.80
2023-02-18T08:29:42.703Z,19.90
2023-02-18T08:31:45.047Z,19.40
2023-02-18T08:33:47.645Z,17.92
2023-02-18T08:35:51.804Z,20.17
2023-02-18T08:37:54.523Z,19.30
2023-02-18T08:39:56.945Z,19.77
2023-02-18T08:41:59.060Z,19.50
2023-02-18T08:44:01.088Z,19.88
2023-02-18T08:46:03.659Z,19.92
2023-02-18T08:48:15.883Z,29.13
2023-02-18T08:50:26.158Z,80.15
2023-02-18T08:52:28.741Z,97.72
2023-02-18T08:54:31.471Z,79.93
2023-02-18T08:56:36.159Z,72.38
2023-02-18T08:58:38.641Z,59.70
2023-02-18T09:00:42.386Z,70.43
2023-02-18T09:02:44.965Z,99.88
2023-02-18T09:04:46.933Z,91.03
2023-02-18T09:06:50.252Z,83.85
2023-02-18T09:08:52.955Z,80.47
2023-02-18T09:10:59.457Z,76.40
2023-02-18T09:13:03.892Z,97.68
2023-02-18T09:15:06.466Z,93.68
2023-02-18T09:17:09.010Z,84.47
2023-02-18T09:19:11.153Z,67.82
2023-02-18T09:21:16.157Z,75.30
2023-02-18T09:23:21.428Z,72.78
2023-02-18T09:25:23.878Z,84.43
2023-02-18T09:27:26.230Z,68.07
2023-02-18T09:29:28.800Z,63.85
2023-02-18T09:31:31.009Z,65.13
2023-02-18T09:33:36.452Z,76.85
2023-02-18T09:35:43.377Z,70.20
2023-02-18T09:37:47.663Z,62.55
2023-02-18T09:39:49.767Z,55.40
2023-02-18T09:42:04.373Z,70.78
2023-02-18T09:44:16.614Z,64.22
2023-02-18T09:46:46.941Z,44.72
2023-02-18T09:48:51.950Z,36.63
2023-02-18T09:50:54.354Z,28.15
2023-02-18T09:52:59.368Z,23.35
2023-02-18T09:55:14.604Z,21.35
2023-02-18T09:57:39.449Z,22.30
2023-02-18T09:59:43.075Z,19.88
2023-02-18T10:01:48.414Z,21.77
2023-02-18T10:03:51.202Z,21.98
2023-02-18T10:06:12.817Z,22.88
2023-02-18T10:08:26.159Z,19.52
2023-02-18T10:10:47.199Z,20.00
2023-02-18T10:12:53.732Z,20.52
2023-02-18T10:15:01.574Z,22.27
2023-02-18T10:17:05.593Z,20.25
2023-02-18T10:19:32.666Z,20.45
2023-02-18T10:21:37.246Z,19.67
2023-02-18T10:23:43.593Z,23.63
2023-02-18T10:25:49.134Z,26.15
2023-02-18T10:27:54.508Z,28.13
2023-02-18T10:30:02.695Z,32.25
2023-02-18T10:32:24.162Z,30.63
2023-02-18T10:34:46.199Z,20.50
2023-02-18T10:36:56.272Z,18.75
2023-02-18T10:39:21.695Z,20.30
2023-02-18T10:41:42.614Z,18.90
2023-02-18T10:44:08.839Z,22.08
2023-02-18T10:46:37.683Z,23.92
2023-02-18T10:48:46.042Z,23.80
2023-02-18T10:50:49.040Z,24.77
2023-02-18T10:52:55.469Z,24.23
2023-02-18T10:55:00.548Z,25.60
2023-02-18T10:57:04.884Z,25.25
2023-02-18T10:59:27.933Z,30.55
2023-02-18T11:01:31.769Z,42.58
2023-02-18T11:03:46.984Z,36.95
2023-02-18T11:05:52.740Z,41.80
2023-02-18T11:07:58.362Z,37.35
2023-02-18T11:10:17.386Z,36.35
2023-02-18T11:12:27.767Z,37.58
2023-02-18T11:14:43.201Z,36.90
2023-02-18T11:16:47.628Z,33.90
2023-02-18T11:18:52.453Z,27.10
2023-02-18T11:21:24.704Z,26.45
2023-02-18T11:23:26.934Z,24.38
2023-02-18T11:25:35.005Z,23.42
2023-02-18T11:27:51.202Z,22.58
2023-02-18T11:30:00.972Z,20.33
2023-02-18T11:32:03.454Z,22.52
2023-02-18T11:34:06.524Z,21.10
2023-02-18T11:36:22.172Z,20.67
2023-02-18T11:38:34.520Z,19.67
2023-02-18T11:40:37.358Z,19.63
2023-02-18T11:42:39.824Z,20.58
2023-02-18T11:44:48.690Z,20.48
2023-02-18T11:47:17.090Z,21.02
2023-02-18T11:49:24.395Z,21.88
2023-02-18T11:51:38.264Z,20.77
2023-02-18T11:53:53.489Z,20.00
2023-02-18T11:56:01.569Z,17.55
2023-02-18T11:58:06.382Z,18.75
2023-02-18T12:00:24.900Z,16.58
2023-02-18T12:02:30.156Z,16.50
2023-02-18T12:04:55.069Z,14.50
2023-02-18T12:07:05.839Z,15.68
2023-02-18T12:09:34.507Z,15.43
2023-02-18T12:11:43.663Z,17.98
2023-02-18T12:13:57.170Z,16.27
2023-02-18T12:16:16.067Z,18.52
2023-02-18T12:18:50.412Z,17.23
2023-02-18T12:21:08.467Z,14.48
2023-02-18T12:23:22.627Z,15.98
2023-02-18T12:25:24.919Z,14.27
2023-02-18T12:27:30.191Z,13.73
2023-02-18T12:29:44.267Z,12.65
2023-02-18T12:31:52.342Z,13.25
2023-02-18T12:34:13.365Z,14.07
2023-02-18T12:36:25.185Z,12.60
2023-02-18T12:38:39.106Z,13.05
2023-02-18T12:40:53.219Z,13.52
2023-02-18T12:43:18.154Z,12.88
2023-02-18T12:45:55.053Z,13.23
2023-02-18T12:48:09.060Z,15.23
2023-02-18T12:50:26.051Z,14.88
2023-02-18T12:52:43.135Z,15.20
2023-02-18T12:55:00.555Z,17.27
2023-02-18T12:57:10.939Z,16.73
2023-02-18T12:59:43.834Z,16.60
2023-02-18T13:01:58.158Z,15.25
2023-02-18T13:04:16.031Z,15.10
2023-02-18T13:06:34.314Z,13.55
2023-02-18T13:08:52.207Z,16.25
2023-02-18T13:11:04.876Z,13.95
2023-02-18T13:13:22.691Z,14.38
2023-02-18T13:15:33.690Z,13.50
2023-02-18T13:17:39.812Z,18.50
2023-02-18T13:20:05.748Z,21.00
2023-02-18T13:22:12.971Z,22.85
2023-02-18T13:24:27.763Z,22.00
2023-02-18T13:26:32.571Z,20.15
2023-02-18T13:28:37.485Z,17.70
2023-02-18T13:30:50.385Z,17.52
2023-02-18T13:33:10.603Z,16.70
2023-02-18T13:35:49.186Z,18.42
2023-02-18T13:38:42.509Z,16.38
2023-02-18T13:40:48.205Z,14.25
2023-02-18T13:42:54.176Z,14.98
2023-02-18T13:44:56.350Z,14.98
2023-02-18T13:46:59.981Z,15.65
2023-02-18T13:49:01.945Z,18.05
2023-02-18T13:51:06.353Z,17.15
2023-02-18T13:53:08.421Z,16.15
2023-02-18T13:55:24.123Z,16.33
2023-02-18T13:57:28.945Z,17.58
2023-02-18T13:59:46.369Z,22.35
2023-02-18T14:01:50.789Z,20.85
2023-02-18T14:03:56.600Z,19.58
2023-02-18T14:05:58.940Z,17.75
2023-02-18T14:08:12.244Z,20.25
2023-02-18T14:10:14.363Z,18.52
2023-02-18T14:12:46.048Z,19.33
2023-02-18T14:14:48.315Z,19.00
2023-02-18T14:17:21.414Z,19.45
2023-02-18T14:19:30.667Z,19.17
2023-02-18T14:21:44.197Z,19.98
2023-02-18T14:23:52.262Z,22.10
2023-02-18T14:26:17.434Z,21.55
2023-02-18T14:28:34.839Z,21.65
2023-02-18T14:30:42.580Z,21.05
2023-02-18T14:32:46.558Z,24.80
2023-02-18T14:35:07.220Z,24.45
2023-02-18T14:37:40.038Z,26.25
2023-02-18T14:39:56.611Z,27.58
2023-02-18T14:42:11.192Z,28.23
2023-02-18T14:44:43.172Z,29.02
2023-02-18T14:47:06.335Z,24.70
2023-02-18T14:49:23.569Z,25.10
2023-02-18T14:51:29.763Z,27.48
2023-02-18T14:53:44.418Z,26.45
2023-02-18T14:55:50.161Z,27.17
2023-02-18T14:57:57.652Z,25.38
2023-02-18T15:00:00.172Z,30.88
2023-02-18T15:02:02.302Z,48.28
2023-02-18T15:04:05.296Z,38.70
2023-02-18T15:06:28.195Z,54.20
2023-02-18T15:08:39.010Z,49.25
2023-02-18T15:10:43.819Z,49.92
2023-02-18T15:12:46.050Z,36.25
2023-02-18T15:14:51.598Z,39.47
2023-02-18T15:16:54.315Z,34.17
2023-02-18T15:18:59.751Z,32.90
2023-02-18T15:21:06.478Z,30.05
2023-02-18T15:23:15.878Z,28.80
2023-02-18T15:25:18.191Z,39.15
2023-02-18T15:27:29.203Z,31.23
2023-02-18T15:29:35.938Z,33.10
2023-02-18T15:31:40.168Z,28.50
2023-02-18T15:33:47.683Z,30.70
2023-02-18T15:35:49.981Z,34.35
2023-02-18T15:37:56.245Z,37.08
2023-02-18T15:39:58.975Z,32.83
2023-02-18T15:42:27.693Z,35.15
2023-02-18T15:44:32.954Z,32.42
2023-02-18T15:46:35.265Z,32.75
2023-02-18T15:48:46.991Z,33.70
2023-02-18T15:50:56.910Z,31.67
2023-02-18T15:53:09.436Z,31.17
2023-02-18T15:55:26.112Z,26.98
2023-02-18T15:57:29.870Z,26.67
2023-02-18T15:59:43.285Z,30.02
2023-02-18T16:01:58.252Z,30.30
2023-02-18T16:04:00.626Z,30.20
2023-02-18T16:06:16.940Z,33.80
2023-02-18T16:08:27.826Z,32.35
2023-02-18T16:10:33.477Z,34.80
2023-02-18T16:12:39.330Z,40.17
2023-02-18T16:14:48.427Z,32.33
2023-02-18T16:17:29.176Z,31.98
2023-02-18T16:19:32.517Z,29.25
2023-02-18T16:21:40.208Z,29.85
2023-02-18T16:23:44.476Z,30.17
2023-02-18T16:25:51.397Z,30.92
2023-02-18T16:27:59.603Z,28.35
2023-02-18T16:30:21.038Z,31.75
2023-02-18T16:32:23.288Z,32.90
2023-02-18T16:34:28.538Z,36.05
2023-02-18T16:36:30.915Z,38.42
2023-02-18T16:38:33.458Z,35.40
2023-02-18T16:40:43.193Z,33.63
2023-02-18T16:42:45.297Z,43.20
2023-02-18T16:44:48.296Z,58.55
2023-02-18T16:46:50.837Z,48.35
2023-02-18T16:48:57.609Z,64.45
2023-02-18T16:51:02.521Z,61.15
2023-02-18T16:53:04.797Z,56.30
2023-02-18T16:55:18.914Z,40.22
2023-02-18T16:57:21.760Z,40.67
2023-02-18T16:59:23.758Z,37.22
2023-02-18T17:01:41.697Z,37.85
2023-02-18T17:03:43.878Z,197.32
2023-02-18T17:05:45.919Z,117.22
2023-02-18T17:07:48.220Z,66.28
2023-02-18T17:09:50.368Z,48.47
2023-02-18T17:11:57.678Z,44.15
2023-02-18T17:14:00.504Z,39.10
2023-02-18T17:16:02.797Z,42.80
2023-02-18T17:18:22.215Z,39.00
2023-02-18T17:20:24.581Z,41.03
2023-02-18T17:22:27.295Z,42.53
2023-02-18T17:24:29.436Z,47.90
2023-02-18T17:26:32.425Z,47.05
2023-02-18T17:28:34.400Z,46.35
2023-02-18T17:30:39.553Z,53.95
2023-02-18T17:32:43.191Z,52.38
2023-02-18T17:34:45.241Z,57.03
2023-02-18T17:36:47.397Z,75.85
2023-02-18T17:38:52.404Z,82.07
2023-02-18T17:40:54.595Z,84.80
2023-02-18T17:42:57.065Z,78.07
2023-02-18T17:44:59.039Z,91.55
2023-02-18T17:47:01.163Z,77.47
2023-02-18T17:49:03.265Z,77.18
2023-02-18T17:51:15.906Z,72.10
2023-02-18T17:53:19.347Z,66.85
2023-02-18T17:55:25.695Z,62.05
2023-02-18T17:57:27.691Z,51.67
2023-02-18T17:59:30.593Z,45.53
2023-02-18T18:01:33.073Z,39.45
2023-02-18T18:03:35.431Z,39.58
2023-02-18T18:05:40.001Z,48.88
2023-02-18T18:07:42.492Z,47.88
2023-02-18T18:09:45.844Z,46.75
2023-02-18T18:11:47.893Z,41.15
2023-02-18T18:13:50.782Z,59.88
2023-02-18T18:15:53.710Z,88.65
2023-02-18T18:17:57.844Z,107.40
2023-02-18T18:19:59.813Z,125.22
2023-02-18T18:22:02.124Z,110.07
2023-02-18T18:24:04.362Z,111.60
2023-02-18T18:26:06.532Z,89.50
2023-02-18T18:28:09.528Z,79.15
2023-02-18T18:30:12.023Z,69.00
2023-02-18T18:32:13.960Z,56.83
2023-02-18T18:34:19.334Z,52.95
2023-02-18T18:36:24.371Z,58.28
2023-02-18T18:38:30.809Z,50.20
2023-02-18T18:40:33.543Z,55.03
2023-02-18T18:42:35.698Z,42.70
2023-02-18T18:44:37.787Z,40.83
2023-02-18T18:46:39.858Z,38.05
2023-02-18T18:48:41.965Z,40.38
2023-02-18T18:50:44.685Z,42.47
2023-02-18T18:52:48.233Z,50.88
2023-02-18T18:54:50.208Z,52.60
2023-02-18T18:56:53.565Z,52.58
2023-02-18T18:58:55.859Z,66.47
2023-02-18T19:01:01.272Z,63.80
2023-02-18T19:03:05.399Z,64.57
2023-02-18T19:05:28.548Z,93.47
2023-02-18T19:07:31.110Z,113.72
2023-02-18T19:09:33.487Z,103.97
2023-02-18T19:11:37.149Z,107.93
2023-02-18T19:13:39.524Z,129.13
2023-02-18T19:15:42.519Z,114.47
2023-02-18T19:17:52.737Z,101.40
2023-02-18T19:19:54.842Z,97.03
2023-02-18T19:21:56.788Z,88.32
2023-02-18T19:24:00.083Z,66.78
2023-02-18T19:26:02.213Z,60.78
2023-02-18T19:28:07.838Z,62.55
2023-02-18T19:30:15.558Z,50.65
2023-02-18T19:32:17.611Z,54.10
2023-02-18T19:34:19.797Z,48.03
2023-02-18T19:36:22.051Z,40.35
2023-02-18T19:38:26.573Z,49.55
2023-02-18T19:40:30.800Z,42.97
2023-02-18T19:42:33.685Z,44.75
2023-02-18T19:44:35.747Z,46.72
2023-02-18T19:46:37.760Z,55.45
2023-02-18T19:48:40.306Z,51.90
2023-02-18T19:50:45.293Z,41.45
2023-02-18T19:52:47.519Z,40.53
2023-02-18T19:54:49.748Z,38.33
2023-02-18T19:56:51.664Z,41.17
2023-02-18T19:58:56.958Z,43.88
2023-02-18T20:00:59.009Z,46.95
2023-02-18T20:03:01.241Z,40.85
2023-02-18T20:05:03.733Z,45.05
2023-02-18T20:07:05.794Z,42.67
2023-02-18T20:09:07.887Z,41.85
2023-02-18T20:11:10.264Z,45.42
2023-02-18T20:13:12.492Z,41.10
2023-02-18T20:15:15.014Z,38.03
2023-02-18T20:17:17.574Z,41.40
2023-02-18T20:19:26.473Z,44.35
2023-02-18T20:21:28.714Z,40.28
2023-02-18T20:23:30.864Z,38.67
2023-02-18T20:25:33.337Z,43.17
2023-02-18T20:27:41.143Z,41.65
2023-02-18T20:29:47.494Z,41.35
2023-02-18T20:31:51.923Z,48.38
2023-02-18T20:33:56.934Z,45.63
2023-02-18T20:35:59.048Z,44.70
2023-02-18T20:38:01.094Z,44.67
2023-02-18T20:40:04.105Z,40.17
2023-02-18T20:42:15.850Z,40.43
2023-02-18T20:44:20.055Z,41.80
2023-02-18T20:46:22.216Z,42.60
2023-02-18T20:48:24.587Z,39.42
2023-02-18T20:50:26.969Z,47.17
2023-02-18T20:52:29.327Z,44.78
2023-02-18T20:54:31.565Z,44.85
2023-02-18T20:56:34.091Z,51.60
2023-02-18T20:58:36.548Z,56.90
2023-02-18T21:00:38.623Z,49.40
2023-02-18T21:02:40.802Z,47.30
2023-02-18T21:04:43.395Z,41.15
2023-02-18T21:06:49.256Z,37.50
2023-02-18T21:08:54.309Z,38.43
2023-02-18T21:10:57.401Z,41.03
2023-02-18T21:13:00.447Z,41.47
2023-02-18T21:15:03.246Z,43.88
2023-02-18T21:17:06.124Z,45.13
2023-02-18T21:19:12.719Z,46.10
2023-02-18T21:21:15.466Z,46.38
2023-02-18T21:23:17.810Z,46.08
2023-02-18T21:25:20.068Z,44.10
2023-02-18T21:27:22.445Z,46.03
2023-02-18T21:29:25.133Z,47.28
2023-02-18T21:31:30.068Z,44.72
2023-02-18T21:33:32.202Z,42.97
2023-02-18T21:35:39.769Z,57.45
2023-02-18T21:37:41.805Z,99.13
2023-02-18T21:39:44.433Z,131.70
2023-02-18T21:41:46.497Z,94.95
2023-02-18T21:43:49.085Z,107.80
2023-02-18T21:45:50.977Z,96.70
2023-02-18T21:47:54.291Z,91.00
2023-02-18T21:49:56.350Z,110.40
2023-02-18T21:52:08.458Z,115.68
2023-02-18T21:54:10.584Z,93.00
2023-02-18T21:56:12.936Z,109.53
2023-02-18T21:58:16.063Z,122.72
2023-02-18T22:00:21.169Z,118.40
2023-02-18T22:02:32.746Z,110.78
2023-02-18T22:04:36.985Z,96.45
2023-02-18T22:06:39.103Z,104.80
2023-02-18T22:08:41.119Z,92.60
2023-02-18T22:10:43.184Z,100.00
2023-02-18T22:12:45.607Z,81.82
2023-02-18T22:14:48.104Z,82.03
2023-02-18T22:16:50.449Z,87.07
2023-02-18T22:18:52.432Z,95.35
2023-02-18T22:20:57.004Z,78.47
2023-02-18T22:22:59.190Z,86.38
2023-02-18T22:25:01.447Z,84.85
2023-02-18T22:27:03.682Z,103.07
2023-02-18T22:29:06.344Z,89.53
2023-02-18T22:31:13.621Z,103.07
2023-02-18T22:33:15.813Z,115.00
2023-02-18T22:35:17.815Z,91.93
2023-02-18T22:37:19.855Z,86.88
2023-02-18T22:39:21.900Z,85.70
2023-02-18T22:41:25.909Z,72.82
2023-02-18T22:43:28.023Z,60.17
2023-02-18T22:45:30.308Z,51.13
2023-02-18T22:47:32.341Z,45.43
2023-02-18T22:49:34.751Z,45.65
2023-02-18T22:51:39.917Z,47.40
2023-02-18T22:53:42.627Z,44.95
2023-02-18T22:55:45.144Z,47.33
2023-02-18T22:57:47.302Z,56.63
2023-02-18T22:59:49.719Z,54.95
2023-02-18T23:01:53.241Z,53.63
2023-02-18T23:03:57.760Z,49.57
2023-02-18T23:06:05.252Z,47.92
2023-02-18T23:08:07.614Z,53.35
2023-02-18T23:10:09.623Z,54.40
2023-02-18T23:12:11.694Z,61.65
2023-02-18T23:14:19.942Z,64.47
2023-02-18T23:16:22.807Z,78.82
2023-02-18T23:18:26.008Z,65.80
2023-02-18T23:20:46.436Z,93.67
2023-02-18T23:22:48.479Z,84.53
2023-02-18T23:24:50.996Z,92.40
2023-02-18T23:26:56.154Z,90.40
2023-02-18T23:28:58.391Z,89.87
2023-02-18T23:31:00.650Z,76.20
2023-02-18T23:33:02.769Z,99.03
2023-02-18T23:35:05.290Z,83.70
2023-02-18T23:37:07.419Z,66.17
2023-02-18T23:39:11.327Z,59.93
2023-02-18T23:41:13.505Z,54.22
2023-02-18T23:43:16.024Z,55.10
2023-02-18T23:45:17.974Z,50.35
2023-02-18T23:47:20.324Z,58.53
2023-02-18T23:49:25.396Z,63.00
2023-02-18T23:51:28.056Z,64.68
2023-02-18T23:53:32.262Z,69.77
2023-02-18T23:55:34.407Z,58.78
2023-02-18T23:57:36.939Z,64.40
2023-02-18T23:59:39.083Z,103.80
